createdAt,value
2022-07-29T00:02:09.596Z,25.31
2022-07-29T00:04:37.011Z,25.24
2022-07-29T00:07:05.065Z,25.31
2022-07-29T00:09:32.660Z,25.24
2022-07-29T00:12:00.959Z,25.21
2022-07-29T00:14:28.196Z,25.17
2022-07-29T00:16:54.994Z,25.14
2022-07-29T00:19:21.671Z,25.21
2022-07-29T00:21:49.984Z,25.22
2022-07-29T00:24:16.855Z,25.24
2022-07-29T00:26:43.670Z,25.19
2022-07-29T00:31:56.941Z,25.18
2022-07-29T00:34:42.186Z,25.15
2022-07-29T00:37:08.858Z,25.13
2022-07-29T00:39:35.457Z,25.17
2022-07-29T00:42:04.998Z,25.16
2022-07-29T00:44:31.607Z,25.27
2022-07-29T00:46:58.419Z,25.26
2022-07-29T00:49:25.096Z,25.26
2022-07-29T00:51:52.237Z,25.26
2022-07-29T00:54:19.090Z,25.33
2022-07-29T00:56:45.969Z,25.28
2022-07-29T00:59:12.634Z,25.35
2022-07-29T01:01:39.268Z,25.29
2022-07-29T01:04:07.488Z,24.91
2022-07-29T01:06:35.132Z,25.35
2022-07-29T01:09:02.532Z,25.28
2022-07-29T01:11:29.111Z,25.21
2022-07-29T01:13:56.542Z,25.21
2022-07-29T01:16:34.019Z,25.13
2022-07-29T01:19:48.739Z,25.15
2022-07-29T01:22:43.216Z,25.07
2022-07-29T01:25:47.398Z,24.93
2022-07-29T01:28:57.482Z,24.99
2022-07-29T01:31:32.670Z,24.93
2022-07-29T01:34:07.791Z,24.80
2022-07-29T01:36:44.378Z,24.83
2022-07-29T01:39:17.961Z,24.85
2022-07-29T01:41:57.083Z,24.84
2022-07-29T01:44:50.171Z,24.87
2022-07-29T01:47:21.696Z,24.82
2022-07-29T01:49:52.505Z,24.86
2022-07-29T01:52:34.961Z,24.83
2022-07-29T01:55:09.531Z,24.85
2022-07-29T01:57:38.518Z,24.88
2022-07-29T02:00:06.433Z,24.78
2022-07-29T02:02:36.315Z,24.80
2022-07-29T02:05:04.186Z,24.91
2022-07-29T02:07:34.388Z,24.79
2022-07-29T02:10:04.339Z,24.83
2022-07-29T02:12:33.926Z,24.86
2022-07-29T02:15:02.391Z,24.98
2022-07-29T02:17:34.393Z,24.99
2022-07-29T02:20:06.307Z,25.03
2022-07-29T02:22:36.296Z,25.11
2022-07-29T02:25:03.718Z,25.09
2022-07-29T02:27:31.952Z,25.17
2022-07-29T02:30:01.492Z,25.18
2022-07-29T02:32:30.402Z,25.02
2022-07-29T02:34:58.462Z,25.08
2022-07-29T02:37:27.218Z,25.07
2022-07-29T02:39:56.039Z,25.05
2022-07-29T02:42:25.115Z,24.94
2022-07-29T02:44:52.496Z,24.92
2022-07-29T02:47:28.762Z,24.88
2022-07-29T02:50:03.564Z,24.74
2022-07-29T02:52:36.069Z,24.63
2022-07-29T02:55:10.619Z,24.64
2022-07-29T02:57:54.904Z,24.51
2022-07-29T03:00:25.192Z,24.61
2022-07-29T03:02:54.875Z,24.66
2022-07-29T03:05:22.424Z,24.66
2022-07-29T03:08:02.073Z,24.60
2022-07-29T03:10:29.376Z,24.49
2022-07-29T03:12:57.597Z,24.51
2022-07-29T03:15:26.589Z,24.49
2022-07-29T03:17:53.958Z,24.49
2022-07-29T03:20:20.806Z,24.53
2022-07-29T03:22:50.577Z,24.55
2022-07-29T03:25:19.640Z,24.53
2022-07-29T03:27:47.283Z,24.51
2022-07-29T03:30:21.791Z,24.48
2022-07-29T03:32:52.036Z,24.55
2022-07-29T03:35:22.262Z,24.52
2022-07-29T03:37:49.826Z,24.58
2022-07-29T03:40:26.359Z,24.66
2022-07-29T03:42:55.830Z,24.66
2022-07-29T03:45:24.078Z,24.71
2022-07-29T03:48:00.653Z,24.69
2022-07-29T03:50:31.242Z,24.69
2022-07-29T03:52:58.495Z,24.70
2022-07-29T03:55:26.480Z,24.62
2022-07-29T03:57:54.006Z,24.68
2022-07-29T04:00:20.661Z,24.61
2022-07-29T04:02:49.611Z,24.68
2022-07-29T04:05:17.639Z,24.82
2022-07-29T04:07:48.649Z,24.83
2022-07-29T04:10:28.338Z,24.83
2022-07-29T04:12:59.751Z,24.82
2022-07-29T04:15:26.843Z,24.86
2022-07-29T04:17:58.566Z,24.80
2022-07-29T04:20:25.248Z,24.92
2022-07-29T04:22:51.808Z,25.07
2022-07-29T04:25:18.409Z,25.05
2022-07-29T04:28:05.279Z,25.04
2022-07-29T04:30:33.161Z,25.09
2022-07-29T04:33:01.880Z,25.26
2022-07-29T04:35:29.916Z,25.32
2022-07-29T04:37:56.496Z,25.26
2022-07-29T04:40:23.251Z,25.34
2022-07-29T04:42:49.825Z,25.40
2022-07-29T04:45:16.488Z,25.49
2022-07-29T04:47:48.981Z,25.58
2022-07-29T04:50:15.629Z,25.70
2022-07-29T04:52:42.249Z,25.80
2022-07-29T04:55:09.356Z,25.67
2022-07-29T04:57:36.177Z,26.01
2022-07-29T05:00:04.301Z,25.97
2022-07-29T05:02:30.945Z,26.10
2022-07-29T05:04:57.664Z,26.21
2022-07-29T05:07:24.539Z,26.19
2022-07-29T05:09:51.225Z,26.45
2022-07-29T05:12:17.904Z,26.60
2022-07-29T05:14:44.479Z,26.67
2022-07-29T05:17:11.140Z,26.69
2022-07-29T05:19:39.410Z,26.80
2022-07-29T05:22:06.828Z,26.83
2022-07-29T05:24:33.547Z,26.99
2022-07-29T05:27:00.176Z,27.12
2022-07-29T05:29:42.907Z,27.18
2022-07-29T05:32:11.913Z,27.19
2022-07-29T05:34:38.528Z,27.18
2022-07-29T05:37:19.211Z,27.17
2022-07-29T05:39:48.213Z,27.17
2022-07-29T05:42:16.906Z,27.03
2022-07-29T05:44:43.559Z,27.01
2022-07-29T05:47:10.134Z,27.08
2022-07-29T05:49:36.811Z,26.99
2022-07-29T05:52:04.131Z,27.28
2022-07-29T05:54:30.689Z,27.39
2022-07-29T05:56:57.609Z,27.46
2022-07-29T05:59:29.876Z,27.30
2022-07-29T06:01:58.228Z,27.25
2022-07-29T06:04:25.366Z,27.44
2022-07-29T06:06:52.067Z,27.85
2022-07-29T06:09:18.773Z,28.47
2022-07-29T06:11:45.352Z,29.32
2022-07-29T06:14:12.233Z,30.33
2022-07-29T06:16:39.013Z,30.55
2022-07-29T06:19:05.772Z,31.61
2022-07-29T06:21:32.341Z,31.73
2022-07-29T06:23:58.919Z,32.14
2022-07-29T06:26:30.647Z,33.35
2022-07-29T06:28:58.191Z,35.07
2022-07-29T06:31:24.906Z,36.53
2022-07-29T06:33:51.658Z,37.66
2022-07-29T06:36:21.716Z,38.49
2022-07-29T06:38:51.299Z,39.69
2022-07-29T06:41:19.121Z,42.02
2022-07-29T06:43:52.223Z,43.30
2022-07-29T06:46:22.312Z,40.25
2022-07-29T06:48:50.171Z,38.20
2022-07-29T06:51:22.283Z,39.27
2022-07-29T06:53:58.082Z,41.05
2022-07-29T06:56:26.645Z,41.35
2022-07-29T06:58:53.286Z,42.81
2022-07-29T07:01:20.791Z,41.43
2022-07-29T07:03:48.781Z,41.95
2022-07-29T07:06:15.653Z,40.77
2022-07-29T07:08:42.293Z,40.68
2022-07-29T07:11:09.743Z,41.77
2022-07-29T07:13:36.648Z,41.27
2022-07-29T07:16:04.265Z,40.83
2022-07-29T07:18:31.305Z,38.45
2022-07-29T07:20:59.300Z,37.36
2022-07-29T07:23:26.050Z,37.52
2022-07-29T07:25:52.941Z,39.32
2022-07-29T07:28:24.620Z,40.28
2022-07-29T07:30:52.709Z,42.26
2022-07-29T07:33:19.651Z,42.17
2022-07-29T07:35:46.476Z,42.87
2022-07-29T07:38:13.540Z,43.95
2022-07-29T07:40:40.167Z,43.22
2022-07-29T07:43:07.011Z,45.46
2022-07-29T07:45:34.058Z,46.52
2022-07-29T07:48:00.978Z,46.09
2022-07-29T07:50:27.630Z,47.04
2022-07-29T07:52:58.635Z,46.92
2022-07-29T07:55:26.575Z,45.19
2022-07-29T07:57:53.643Z,45.80
2022-07-29T08:00:23.024Z,45.46
2022-07-29T08:02:51.042Z,46.38
2022-07-29T08:05:18.278Z,46.99
2022-07-29T08:07:46.959Z,47.76
2022-07-29T08:10:16.011Z,48.73
2022-07-29T08:12:44.517Z,49.03
2022-07-29T08:15:11.319Z,46.77
2022-07-29T08:17:37.977Z,46.18
2022-07-29T08:20:05.285Z,45.25
2022-07-29T08:22:32.255Z,44.81
2022-07-29T08:24:58.860Z,44.38
2022-07-29T08:27:42.451Z,44.36
2022-07-29T08:30:11.330Z,45.69
2022-07-29T08:32:53.303Z,46.16
2022-07-29T08:35:22.856Z,46.43
2022-07-29T08:37:49.724Z,48.10
2022-07-29T08:40:16.476Z,49.76
2022-07-29T08:42:43.212Z,50.20
2022-07-29T08:45:10.515Z,49.62
2022-07-29T08:47:40.856Z,50.63
2022-07-29T08:50:09.217Z,50.47
2022-07-29T08:52:38.797Z,50.78
2022-07-29T08:55:07.488Z,49.70
2022-07-29T08:57:35.279Z,49.30
2022-07-29T09:00:08.099Z,49.79
2022-07-29T09:02:46.667Z,46.00
2022-07-29T09:05:14.452Z,45.11
2022-07-29T09:07:44.190Z,43.96
2022-07-29T09:10:11.425Z,44.67
2022-07-29T09:12:38.466Z,45.41
2022-07-29T09:15:05.726Z,46.08
2022-07-29T09:17:47.059Z,46.58
2022-07-29T09:20:19.215Z,47.61
2022-07-29T09:22:50.166Z,47.67
2022-07-29T09:25:34.100Z,45.42
2022-07-29T09:28:09.052Z,43.46
2022-07-29T09:30:36.993Z,44.13
2022-07-29T09:33:04.438Z,44.29
2022-07-29T09:35:32.086Z,42.56
2022-07-29T09:37:58.752Z,42.59
2022-07-29T09:40:28.850Z,42.40
2022-07-29T09:42:59.319Z,42.44
2022-07-29T09:45:34.025Z,42.95
2022-07-29T09:48:13.626Z,43.53
2022-07-29T09:50:42.119Z,43.68
2022-07-29T09:53:10.500Z,43.61
2022-07-29T09:55:53.042Z,41.46
2022-07-29T09:58:21.577Z,41.29
2022-07-29T10:00:49.639Z,42.22
2022-07-29T10:03:17.154Z,41.54
2022-07-29T10:05:45.219Z,41.24
2022-07-29T10:08:13.456Z,41.17
2022-07-29T10:10:43.508Z,41.39
2022-07-29T10:13:16.418Z,41.54
2022-07-29T10:15:46.153Z,41.13
2022-07-29T10:18:18.444Z,40.19
2022-07-29T10:20:46.128Z,39.04
2022-07-29T10:23:13.673Z,39.56
2022-07-29T10:25:45.632Z,41.17
2022-07-29T10:28:16.261Z,41.53
2022-07-29T10:30:45.580Z,41.88
2022-07-29T10:33:26.269Z,41.65
2022-07-29T10:36:14.306Z,41.82
2022-07-29T10:38:59.193Z,42.01
2022-07-29T10:41:43.906Z,40.51
2022-07-29T10:44:19.086Z,39.00
2022-07-29T10:46:47.129Z,39.13
2022-07-29T10:49:25.382Z,37.09
2022-07-29T10:52:01.057Z,36.51
2022-07-29T10:54:36.678Z,36.53
2022-07-29T10:57:53.207Z,36.83
2022-07-29T11:00:28.668Z,37.14
2022-07-29T11:02:57.564Z,36.54
2022-07-29T11:05:32.073Z,36.70
2022-07-29T11:08:19.958Z,36.88
2022-07-29T11:10:52.544Z,36.63
2022-07-29T11:13:51.085Z,36.73
2022-07-29T11:16:25.002Z,36.78
2022-07-29T11:19:29.983Z,36.90
2022-07-29T11:22:05.454Z,36.71
2022-07-29T11:24:34.959Z,36.56
2022-07-29T11:27:13.250Z,36.19
2022-07-29T11:29:49.874Z,36.55
2022-07-29T11:32:23.373Z,36.44
2022-07-29T11:35:17.168Z,36.90
2022-07-29T11:37:56.408Z,37.63
2022-07-29T11:40:24.691Z,38.41
2022-07-29T11:42:52.394Z,38.48
2022-07-29T11:45:43.862Z,38.05
2022-07-29T11:48:29.266Z,38.30
2022-07-29T11:50:59.049Z,38.46
2022-07-29T11:53:25.882Z,38.17
2022-07-29T11:55:58.179Z,38.27
2022-07-29T11:58:26.143Z,38.49
2022-07-29T12:00:53.224Z,38.61
2022-07-29T12:03:32.824Z,37.93
2022-07-29T12:06:02.698Z,37.06
2022-07-29T12:08:29.275Z,36.73
2022-07-29T12:10:55.963Z,36.67
2022-07-29T12:13:23.033Z,36.71
2022-07-29T12:16:03.834Z,37.10
2022-07-29T12:18:30.546Z,37.23
2022-07-29T12:21:04.861Z,37.26
2022-07-29T12:23:35.441Z,37.21
2022-07-29T12:26:07.668Z,36.92
2022-07-29T12:28:40.255Z,36.80
2022-07-29T12:31:08.083Z,37.07
2022-07-29T12:33:36.049Z,37.08
2022-07-29T12:36:10.397Z,36.86
2022-07-29T12:38:41.779Z,36.92
2022-07-29T12:41:08.451Z,36.68
2022-07-29T12:43:35.114Z,36.62
2022-07-29T12:46:16.181Z,36.51
2022-07-29T12:48:44.527Z,36.23
2022-07-29T12:51:13.331Z,35.97
2022-07-29T12:53:40.645Z,35.82
2022-07-29T12:56:40.682Z,35.82
2022-07-29T12:59:19.700Z,35.92
2022-07-29T13:01:51.602Z,35.98
2022-07-29T13:04:29.464Z,35.96
2022-07-29T13:07:08.342Z,35.59
2022-07-29T13:09:39.574Z,35.41
2022-07-29T13:12:11.459Z,35.45
2022-07-29T13:14:43.365Z,35.14
2022-07-29T13:17:14.218Z,35.21
2022-07-29T13:19:43.646Z,35.32
2022-07-29T13:22:12.314Z,35.44
2022-07-29T13:24:50.362Z,35.74
2022-07-29T13:27:22.577Z,35.99
2022-07-29T13:29:52.379Z,36.20
2022-07-29T13:32:20.000Z,36.47
2022-07-29T13:35:01.636Z,36.43
2022-07-29T13:37:33.941Z,36.62
2022-07-29T13:40:01.168Z,36.51
2022-07-29T13:42:28.060Z,36.44
2022-07-29T13:44:54.754Z,36.14
2022-07-29T13:47:22.513Z,35.92
2022-07-29T13:49:59.585Z,35.89
2022-07-29T13:52:26.213Z,35.92
2022-07-29T13:54:52.772Z,35.93
2022-07-29T13:57:20.267Z,35.66
2022-07-29T13:59:51.871Z,35.55
2022-07-29T14:02:20.622Z,35.17
2022-07-29T14:04:47.432Z,34.88
2022-07-29T14:07:16.408Z,34.68
2022-07-29T14:09:43.619Z,34.70
2022-07-29T14:12:10.725Z,34.74
2022-07-29T14:14:37.797Z,34.86
2022-07-29T14:17:07.393Z,35.06
2022-07-29T14:19:36.685Z,35.13
2022-07-29T14:22:05.308Z,35.11
2022-07-29T14:24:32.462Z,34.98
2022-07-29T14:27:03.528Z,34.98
2022-07-29T14:29:37.721Z,35.13
2022-07-29T14:32:10.038Z,35.22
2022-07-29T14:34:37.678Z,35.26
2022-07-29T14:37:09.419Z,35.37
2022-07-29T14:39:43.337Z,35.50
2022-07-29T14:42:12.897Z,35.49
2022-07-29T14:44:41.450Z,35.47
2022-07-29T14:47:08.555Z,35.62
2022-07-29T14:49:35.941Z,35.57
2022-07-29T14:52:03.028Z,35.56
2022-07-29T14:54:29.645Z,35.57
2022-07-29T14:56:58.268Z,35.68
2022-07-29T14:59:25.702Z,35.75
2022-07-29T15:01:52.352Z,35.65
2022-07-29T15:04:19.023Z,35.49
2022-07-29T15:06:45.830Z,35.54
2022-07-29T15:09:12.877Z,35.64
2022-07-29T15:11:39.527Z,35.47
2022-07-29T15:14:07.157Z,35.57
2022-07-29T15:16:37.246Z,35.38
2022-07-29T15:19:04.720Z,35.37
2022-07-29T15:21:31.398Z,35.36
2022-07-29T15:23:58.044Z,35.46
2022-07-29T15:26:24.664Z,35.47
2022-07-29T15:28:51.351Z,35.53
2022-07-29T15:31:19.761Z,35.46
2022-07-29T15:33:46.469Z,35.38
2022-07-29T15:36:25.436Z,35.48
2022-07-29T15:39:00.177Z,35.24
2022-07-29T15:41:26.805Z,35.31
2022-07-29T15:43:53.492Z,35.10
2022-07-29T15:46:39.379Z,34.80
2022-07-29T15:49:07.139Z,34.77
2022-07-29T15:51:34.192Z,34.80
2022-07-29T15:54:04.900Z,34.97
2022-07-29T15:56:32.139Z,35.03
2022-07-29T15:58:58.790Z,35.00
2022-07-29T16:01:25.988Z,35.19
2022-07-29T16:03:53.072Z,35.04
2022-07-29T16:06:19.959Z,35.09
2022-07-29T16:08:46.749Z,35.01
2022-07-29T16:11:13.414Z,34.81
2022-07-29T16:13:40.012Z,34.92
2022-07-29T16:16:06.715Z,34.83
2022-07-29T16:18:33.336Z,34.54
2022-07-29T16:20:59.957Z,34.44
2022-07-29T16:23:26.680Z,34.39
2022-07-29T16:26:01.269Z,34.34
2022-07-29T16:28:29.140Z,34.35
2022-07-29T16:30:55.851Z,34.46
2022-07-29T16:33:23.516Z,34.33
2022-07-29T16:35:50.902Z,34.15
2022-07-29T16:38:17.582Z,34.17
2022-07-29T16:40:44.284Z,34.21
2022-07-29T16:43:11.032Z,34.15
2022-07-29T16:45:45.056Z,34.10
2022-07-29T16:48:14.234Z,33.95
2022-07-29T16:50:40.883Z,33.99
2022-07-29T16:53:10.317Z,33.98
2022-07-29T16:55:37.019Z,33.83
2022-07-29T16:58:03.681Z,33.72
2022-07-29T17:00:30.388Z,33.67
2022-07-29T17:02:57.072Z,33.64
2022-07-29T17:05:23.778Z,33.54
2022-07-29T17:07:50.394Z,33.49
2022-07-29T17:10:17.177Z,33.30
2022-07-29T17:12:44.279Z,33.19
2022-07-29T17:15:12.731Z,33.21
2022-07-29T17:17:55.217Z,32.96
2022-07-29T17:20:23.508Z,33.01
2022-07-29T17:22:50.190Z,32.86
2022-07-29T17:25:20.925Z,32.82
2022-07-29T17:27:49.671Z,32.74
2022-07-29T17:30:16.525Z,32.72
2022-07-29T17:32:43.142Z,32.67
2022-07-29T17:35:28.230Z,32.52
2022-07-29T17:37:55.186Z,32.47
2022-07-29T17:40:22.185Z,32.33
2022-07-29T17:42:48.769Z,32.29
2022-07-29T17:45:15.637Z,32.20
2022-07-29T17:47:42.264Z,32.24
2022-07-29T17:50:09.090Z,32.20
2022-07-29T17:52:35.717Z,32.12
2022-07-29T17:55:02.676Z,32.01
2022-07-29T17:57:29.391Z,31.90
2022-07-29T17:59:55.983Z,31.72
2022-07-29T18:02:22.687Z,31.62
2022-07-29T18:04:51.825Z,31.48
2022-07-29T18:07:18.602Z,31.37
2022-07-29T18:09:45.268Z,31.27
2022-07-29T18:12:11.846Z,31.18
2022-07-29T18:14:38.720Z,31.08
2022-07-29T18:17:05.364Z,31.07
2022-07-29T18:19:31.989Z,30.93
2022-07-29T18:22:04.838Z,30.79
2022-07-29T18:24:32.518Z,30.64
2022-07-29T18:26:59.382Z,30.53
2022-07-29T18:29:28.934Z,30.45
2022-07-29T18:31:56.040Z,30.33
2022-07-29T18:34:22.624Z,30.21
2022-07-29T18:36:49.190Z,30.09
2022-07-29T18:39:20.748Z,30.00
2022-07-29T18:41:51.606Z,29.86
2022-07-29T18:44:21.935Z,29.73
2022-07-29T18:46:51.056Z,29.58
2022-07-29T18:49:18.094Z,29.44
2022-07-29T18:51:44.802Z,29.32
2022-07-29T18:54:11.375Z,29.23
2022-07-29T18:56:38.082Z,28.93
2022-07-29T18:59:05.053Z,29.19
2022-07-29T19:01:32.953Z,29.16
2022-07-29T19:04:00.253Z,29.15
2022-07-29T19:06:26.834Z,29.08
2022-07-29T19:08:53.746Z,29.03
2022-07-29T19:11:20.376Z,28.95
2022-07-29T19:13:47.035Z,28.88
2022-07-29T19:16:14.500Z,28.87
2022-07-29T19:18:41.663Z,28.71
2022-07-29T19:21:08.801Z,28.85
2022-07-29T19:24:06.025Z,28.77
2022-07-29T19:26:22.145Z,28.73
2022-07-29T19:28:49.313Z,28.62
2022-07-29T19:31:16.001Z,28.42
2022-07-29T19:33:42.828Z,28.26
2022-07-29T19:36:09.464Z,28.12
2022-07-29T19:38:38.184Z,28.13
2022-07-29T19:41:06.255Z,28.04
2022-07-29T19:43:50.409Z,27.97
2022-07-29T19:46:20.444Z,27.93
2022-07-29T19:48:47.296Z,27.88
2022-07-29T19:51:14.066Z,27.85
2022-07-29T19:53:40.707Z,27.78
2022-07-29T19:56:08.910Z,27.69
2022-07-29T19:58:36.215Z,27.62
2022-07-29T20:01:10.294Z,27.57
2022-07-29T20:03:39.877Z,27.53
2022-07-29T20:06:07.620Z,27.47
2022-07-29T20:08:34.697Z,27.45
2022-07-29T20:11:01.807Z,27.48
2022-07-29T20:13:28.434Z,27.47
2022-07-29T20:15:55.120Z,27.50
2022-07-29T20:18:21.821Z,27.54
2022-07-29T20:20:49.655Z,27.48
2022-07-29T20:23:17.115Z,27.57
2022-07-29T20:25:43.743Z,27.56
2022-07-29T20:28:10.306Z,27.43
2022-07-29T20:30:38.575Z,27.24
2022-07-29T20:33:05.812Z,27.47
2022-07-29T20:35:32.684Z,27.40
2022-07-29T20:38:00.419Z,27.28
2022-07-29T20:40:29.037Z,27.24
2022-07-29T20:42:56.051Z,27.32
2022-07-29T20:45:23.898Z,27.22
2022-07-29T20:47:51.954Z,27.27
2022-07-29T20:50:21.282Z,27.31
2022-07-29T20:52:51.644Z,27.35
2022-07-29T20:55:18.368Z,27.19
2022-07-29T20:57:44.982Z,27.18
2022-07-29T21:00:11.999Z,27.18
2022-07-29T21:02:38.748Z,27.01
2022-07-29T21:05:06.049Z,26.82
2022-07-29T21:07:32.723Z,26.82
2022-07-29T21:09:59.346Z,26.68
2022-07-29T21:12:25.986Z,26.59
2022-07-29T21:14:52.614Z,26.57
2022-07-29T21:17:22.550Z,26.38
2022-07-29T21:19:52.545Z,26.52
2022-07-29T21:22:21.848Z,26.48
2022-07-29T21:24:49.143Z,26.34
2022-07-29T21:27:34.318Z,26.31
2022-07-29T21:30:01.105Z,26.21
2022-07-29T21:32:30.313Z,26.08
2022-07-29T21:34:57.736Z,26.11
2022-07-29T21:37:24.505Z,26.09
2022-07-29T21:39:51.141Z,25.85
2022-07-29T21:42:17.926Z,25.97
2022-07-29T21:44:44.571Z,25.93
2022-07-29T21:47:11.899Z,25.80
2022-07-29T21:49:38.793Z,25.64
2022-07-29T21:52:06.111Z,25.54
2022-07-29T21:54:34.649Z,25.48
2022-07-29T21:57:01.369Z,25.52
2022-07-29T21:59:28.003Z,25.50
2022-07-29T22:01:54.846Z,25.43
2022-07-29T22:04:21.655Z,25.30
2022-07-29T22:06:48.369Z,25.25
2022-07-29T22:09:15.250Z,25.16
2022-07-29T22:11:42.045Z,25.10
2022-07-29T22:14:08.645Z,25.07
2022-07-29T22:16:35.299Z,24.98
2022-07-29T22:19:03.959Z,24.90
2022-07-29T22:21:30.971Z,24.94
2022-07-29T22:23:57.805Z,24.93
2022-07-29T22:26:24.449Z,24.84
2022-07-29T22:28:51.020Z,24.73
2022-07-29T22:31:17.698Z,24.73
2022-07-29T22:33:44.311Z,24.75
2022-07-29T22:36:10.932Z,24.79
2022-07-29T22:38:37.636Z,24.89
2022-07-29T22:41:04.296Z,24.92
2022-07-29T22:43:30.880Z,24.72
2022-07-29T22:45:57.613Z,24.70
2022-07-29T22:48:24.353Z,24.71
2022-07-29T22:50:51.025Z,24.69
2022-07-29T22:53:17.681Z,24.64
2022-07-29T22:55:45.603Z,24.67
2022-07-29T22:58:12.509Z,24.58
2022-07-29T23:00:39.196Z,24.60
2022-07-29T23:03:05.766Z,24.58
2022-07-29T23:05:32.794Z,24.61
2022-07-29T23:07:59.816Z,24.51
2022-07-29T23:10:26.406Z,24.52
2022-07-29T23:12:53.045Z,24.40
2022-07-29T23:15:19.817Z,24.33
2022-07-29T23:17:46.387Z,24.34
2022-07-29T23:20:14.913Z,24.40
2022-07-29T23:22:41.873Z,24.35
2022-07-29T23:25:08.702Z,24.29
2022-07-29T23:27:35.487Z,24.21
2022-07-29T23:30:02.742Z,24.14
2022-07-29T23:32:29.403Z,24.12
2022-07-29T23:34:56.047Z,24.10
2022-07-29T23:37:22.944Z,24.02
2022-07-29T23:39:49.562Z,24.07
2022-07-29T23:42:16.129Z,24.18
2022-07-29T23:44:43.138Z,24.28
2022-07-29T23:47:09.783Z,24.36
2022-07-29T23:49:36.334Z,24.41
2022-07-29T23:52:02.925Z,24.47
2022-07-29T23:54:29.512Z,24.51
2022-07-29T23:56:57.835Z,24.56
2022-07-29T23:59:24.963Z,24.59
